createdAt,value
2024-05-09T00:00:31.563Z,1012.801
2024-05-09T00:01:27.973Z,1012.76
2024-05-09T00:02:27.912Z,1012.788
2024-05-09T00:03:27.993Z,1012.737
2024-05-09T00:04:27.988Z,1012.755
2024-05-09T00:05:26.978Z,1012.72
2024-05-09T00:06:29.794Z,1012.714
2024-05-09T00:07:26.952Z,1012.713
2024-05-09T00:08:27.961Z,1012.704
2024-05-09T00:09:27.919Z,1012.691
2024-05-09T00:10:35.213Z,1012.664
2024-05-09T00:11:27.983Z,1012.684
2024-05-09T00:12:26.957Z,1012.654
2024-05-09T00:13:27.916Z,1012.681
2024-05-09T00:14:27.999Z,1012.682
2024-05-09T00:15:26.917Z,1012.696
2024-05-09T00:16:27.901Z,1012.687
2024-05-09T00:17:27.110Z,1012.686
2024-05-09T00:18:28.088Z,1012.695
2024-05-09T00:19:28.084Z,1012.703
2024-05-09T00:20:35.125Z,1012.7
2024-05-09T00:21:27.923Z,1012.707
2024-05-09T00:22:26.989Z,1012.682
2024-05-09T00:23:27.987Z,1012.66
2024-05-09T00:24:26.948Z,1012.654
2024-05-09T00:25:27.011Z,1012.678
2024-05-09T00:26:28.053Z,1012.705
2024-05-09T00:27:26.952Z,1012.644
2024-05-09T00:28:27.957Z,1012.685
2024-05-09T00:29:27.072Z,1012.675
2024-05-09T00:30:33.599Z,1012.685
2024-05-09T00:31:27.956Z,1012.695
2024-05-09T00:32:27.030Z,1012.703
2024-05-09T00:33:28.321Z,1012.686
2024-05-09T00:34:27.089Z,1012.679
2024-05-09T00:35:30.034Z,1012.69
2024-05-09T00:36:26.971Z,1012.685
2024-05-09T00:37:27.027Z,1012.64
2024-05-09T00:38:27.994Z,1012.652
2024-05-09T00:39:26.984Z,1012.642
2024-05-09T00:40:35.717Z,1012.657
2024-05-09T00:41:28.018Z,1012.641
2024-05-09T00:42:26.981Z,1012.651
2024-05-09T00:43:27.991Z,1012.637
2024-05-09T00:44:27.005Z,1012.619
2024-05-09T00:45:28.012Z,1012.616
2024-05-09T00:46:27.033Z,1012.631
2024-05-09T00:47:27.227Z,1012.615
2024-05-09T00:48:28.150Z,1012.608
2024-05-09T00:49:27.193Z,1012.656
2024-05-09T00:50:35.571Z,1012.65
2024-05-09T00:51:27.028Z,1012.64
2024-05-09T00:52:29.616Z,1012.661
2024-05-09T00:53:28.107Z,1012.664
2024-05-09T00:54:27.005Z,1012.661
2024-05-09T00:55:28.055Z,1012.612
2024-05-09T00:56:27.131Z,1012.601
2024-05-09T00:57:28.019Z,1012.62
2024-05-09T00:58:28.014Z,1012.634
2024-05-09T00:59:27.082Z,1012.619
2024-05-09T01:00:35.925Z,1012.643
2024-05-09T01:01:28.058Z,1012.65
2024-05-09T01:02:28.086Z,1012.664
2024-05-09T01:03:28.310Z,1012.672
2024-05-09T01:04:29.952Z,1012.711
2024-05-09T01:05:27.054Z,1012.661
2024-05-09T01:06:27.034Z,1012.677
2024-05-09T01:07:28.076Z,1012.657
2024-05-09T01:08:28.086Z,1012.67
2024-05-09T01:09:28.048Z,1012.681
2024-05-09T01:10:33.688Z,1012.689
2024-05-09T01:11:27.103Z,1012.668
2024-05-09T01:12:28.202Z,1012.673
2024-05-09T01:13:28.050Z,1012.657
2024-05-09T01:14:28.132Z,1012.655
2024-05-09T01:15:27.070Z,1012.666
2024-05-09T01:16:27.057Z,1012.671
2024-05-09T01:17:28.262Z,1012.669
2024-05-09T01:18:28.072Z,1012.632
2024-05-09T01:19:28.306Z,1012.681
2024-05-09T01:20:36.978Z,1012.636
2024-05-09T01:21:28.068Z,1012.634
2024-05-09T01:22:27.115Z,1012.649
2024-05-09T01:23:28.148Z,1012.672
2024-05-09T01:24:28.122Z,1012.657
2024-05-09T01:25:27.079Z,1012.668
2024-05-09T01:26:28.177Z,1012.69
2024-05-09T01:27:27.082Z,1012.66
2024-05-09T01:28:28.082Z,1012.629
2024-05-09T01:29:28.333Z,1012.672
2024-05-09T01:30:33.033Z,1012.633
2024-05-09T01:31:28.075Z,1012.617
2024-05-09T01:32:27.383Z,1012.632
2024-05-09T01:33:30.219Z,1012.657
2024-05-09T01:34:27.100Z,1012.642
2024-05-09T01:35:27.176Z,1012.627
2024-05-09T01:36:28.107Z,1012.602
2024-05-09T01:37:27.129Z,1012.62
2024-05-09T01:38:28.260Z,1012.576
2024-05-09T01:39:27.107Z,1012.572
2024-05-09T01:40:36.331Z,1012.561
2024-05-09T01:41:28.245Z,1012.535
2024-05-09T01:42:27.114Z,1012.534
2024-05-09T01:43:28.119Z,1012.534
2024-05-09T01:44:27.199Z,1012.553
2024-05-09T01:45:27.122Z,1012.544
2024-05-09T01:46:28.113Z,1012.531
2024-05-09T01:47:27.332Z,1012.542
2024-05-09T01:48:28.189Z,1012.515
2024-05-09T01:49:27.216Z,1012.495
2024-05-09T01:50:37.695Z,1012.513
2024-05-09T01:51:28.128Z,1012.513
2024-05-09T01:52:27.144Z,1012.472
2024-05-09T01:53:28.226Z,1012.508
2024-05-09T01:54:27.145Z,1012.456
2024-05-09T01:55:28.137Z,1012.45
2024-05-09T01:56:27.272Z,1012.466
2024-05-09T01:57:27.153Z,1012.445
2024-05-09T01:58:28.142Z,1012.475
2024-05-09T01:59:27.394Z,1012.483
2024-05-09T02:00:37.101Z,1012.477
2024-05-09T02:01:28.328Z,1012.485
2024-05-09T02:02:30.090Z,1012.518
2024-05-09T02:03:28.415Z,1012.471
2024-05-09T02:04:27.302Z,1012.501
2024-05-09T02:05:28.312Z,1012.484
2024-05-09T02:06:27.170Z,1012.473
2024-05-09T02:07:28.157Z,1012.507
2024-05-09T02:08:28.197Z,1012.515
2024-05-09T02:09:27.174Z,1012.468
2024-05-09T02:10:32.502Z,1012.503
2024-05-09T02:11:27.257Z,1012.477
2024-05-09T02:12:28.238Z,1012.436
2024-05-09T02:13:28.166Z,1012.462
2024-05-09T02:14:27.414Z,1012.473
2024-05-09T02:15:28.192Z,1012.457
2024-05-09T02:16:27.198Z,1012.453
2024-05-09T02:17:28.388Z,1012.425
2024-05-09T02:18:28.372Z,1012.447
2024-05-09T02:19:28.320Z,1012.456
2024-05-09T02:20:33.439Z,1012.42
2024-05-09T02:21:27.196Z,1012.433
2024-05-09T02:22:28.248Z,1012.425
2024-05-09T02:23:28.262Z,1012.418
2024-05-09T02:24:28.221Z,1012.394
2024-05-09T02:25:27.208Z,1012.406
2024-05-09T02:26:27.318Z,1012.433
2024-05-09T02:27:28.225Z,1012.442
2024-05-09T02:28:28.206Z,1012.42
2024-05-09T02:29:28.320Z,1012.409
2024-05-09T02:30:36.266Z,1012.451
2024-05-09T02:31:30.143Z,1012.451
2024-05-09T02:32:27.441Z,1012.438
2024-05-09T02:33:28.493Z,1012.448
2024-05-09T02:34:28.245Z,1012.457
2024-05-09T02:35:27.343Z,1012.462
2024-05-09T02:36:28.230Z,1012.488
2024-05-09T02:37:27.278Z,1012.497
2024-05-09T02:38:28.272Z,1012.504
2024-05-09T02:39:28.236Z,1012.503
2024-05-09T02:40:35.667Z,1012.525
2024-05-09T02:41:28.333Z,1012.495
2024-05-09T02:42:27.245Z,1012.516
2024-05-09T02:43:28.238Z,1012.515
2024-05-09T02:44:28.300Z,1012.497
2024-05-09T02:45:27.256Z,1012.519
2024-05-09T02:46:28.272Z,1012.516
2024-05-09T02:47:27.388Z,1012.501
2024-05-09T02:48:31.731Z,1012.534
2024-05-09T02:49:27.308Z,1012.516
2024-05-09T02:50:34.462Z,1012.545
2024-05-09T02:51:28.442Z,1012.484
2024-05-09T02:52:27.273Z,1012.468
2024-05-09T02:53:28.404Z,1012.478
2024-05-09T02:54:27.273Z,1012.472
2024-05-09T02:55:27.323Z,1012.491
2024-05-09T02:56:28.395Z,1012.464
2024-05-09T02:57:27.282Z,1012.446
2024-05-09T02:58:28.281Z,1012.442
2024-05-09T02:59:27.428Z,1012.396
2024-05-09T03:00:39.020Z,1012.424
2024-05-09T03:01:27.309Z,1012.408
2024-05-09T03:02:27.415Z,1012.431
2024-05-09T03:03:29.486Z,1012.413
2024-05-09T03:04:27.350Z,1012.413
2024-05-09T03:05:28.361Z,1012.414
2024-05-09T03:06:27.300Z,1012.369
2024-05-09T03:07:27.343Z,1012.4
2024-05-09T03:08:28.964Z,1012.391
2024-05-09T03:09:27.304Z,1012.388
2024-05-09T03:10:29.082Z,1012.388
2024-05-09T03:11:27.416Z,1012.36
2024-05-09T03:12:27.375Z,1012.395
2024-05-09T03:13:29.005Z,1012.386
2024-05-09T03:14:27.530Z,1012.376
2024-05-09T03:15:28.295Z,1012.336
2024-05-09T03:16:27.362Z,1012.376
2024-05-09T03:17:28.399Z,1012.343
2024-05-09T03:18:29.839Z,1012.357
2024-05-09T03:19:27.444Z,1012.336
2024-05-09T03:20:33.606Z,1012.37
2024-05-09T03:21:27.331Z,1012.371
2024-05-09T03:22:28.326Z,1012.36
2024-05-09T03:23:29.778Z,1012.394
2024-05-09T03:24:27.348Z,1012.347
2024-05-09T03:25:28.330Z,1012.358
2024-05-09T03:26:27.462Z,1012.356
2024-05-09T03:27:28.347Z,1012.371
2024-05-09T03:28:29.793Z,1012.349
2024-05-09T03:29:30.346Z,1012.356
2024-05-09T03:30:35.987Z,1012.363
2024-05-09T03:31:28.350Z,1012.347
2024-05-09T03:32:28.435Z,1012.336
2024-05-09T03:33:30.937Z,1012.361
2024-05-09T03:34:28.416Z,1012.372
2024-05-09T03:35:27.404Z,1012.353
2024-05-09T03:36:27.363Z,1012.357
2024-05-09T03:37:28.364Z,1012.356
2024-05-09T03:38:30.523Z,1012.337
2024-05-09T03:39:28.387Z,1012.377
2024-05-09T03:40:30.819Z,1012.341
2024-05-09T03:41:27.405Z,1012.322
2024-05-09T03:42:28.401Z,1012.332
2024-05-09T03:43:30.644Z,1012.297
2024-05-09T03:44:28.468Z,1012.315
2024-05-09T03:45:27.419Z,1012.322
2024-05-09T03:46:28.389Z,1012.332
2024-05-09T03:47:27.569Z,1012.312
2024-05-09T03:48:27.546Z,1012.305
2024-05-09T03:49:28.451Z,1012.324
2024-05-09T03:50:33.697Z,1012.322
2024-05-09T03:51:28.383Z,1012.31
2024-05-09T03:52:27.404Z,1012.34
2024-05-09T03:53:27.465Z,1012.344
2024-05-09T03:54:28.422Z,1012.356
2024-05-09T03:55:27.460Z,1012.315
2024-05-09T03:56:28.425Z,1012.307
2024-05-09T03:57:27.413Z,1012.325
2024-05-09T03:58:36.492Z,1012.328
2024-05-09T03:59:27.624Z,1012.328
2024-05-09T04:00:35.204Z,1012.308
2024-05-09T04:01:28.477Z,1012.292
2024-05-09T04:02:27.478Z,1012.311
2024-05-09T04:03:28.669Z,1012.325
2024-05-09T04:04:28.489Z,1012.312
2024-05-09T04:05:27.487Z,1012.318
2024-05-09T04:06:28.446Z,1012.287
2024-05-09T04:07:27.480Z,1012.289
2024-05-09T04:08:28.499Z,1012.296
2024-05-09T04:09:28.425Z,1012.329
2024-05-09T04:10:32.810Z,1012.317
2024-05-09T04:11:28.530Z,1012.338
2024-05-09T04:12:27.530Z,1012.337
2024-05-09T04:13:28.470Z,1012.344
2024-05-09T04:14:28.571Z,1012.334
2024-05-09T04:15:28.442Z,1012.307
2024-05-09T04:16:27.497Z,1012.322
2024-05-09T04:17:27.622Z,1012.345
2024-05-09T04:18:28.612Z,1012.37
2024-05-09T04:19:28.626Z,1012.348
2024-05-09T04:20:36.318Z,1012.346
2024-05-09T04:21:28.448Z,1012.36
2024-05-09T04:22:27.511Z,1012.364
2024-05-09T04:23:28.646Z,1012.344
2024-05-09T04:24:28.454Z,1012.366
2024-05-09T04:25:28.455Z,1012.379
2024-05-09T04:26:27.565Z,1012.352
2024-05-09T04:27:30.374Z,1012.396
2024-05-09T04:28:27.522Z,1012.371
2024-05-09T04:29:28.649Z,1012.391
2024-05-09T04:30:36.654Z,1012.382
2024-05-09T04:31:28.486Z,1012.384
2024-05-09T04:32:28.650Z,1012.384
2024-05-09T04:33:27.688Z,1012.391
2024-05-09T04:34:28.637Z,1012.407
2024-05-09T04:35:28.582Z,1012.412
2024-05-09T04:36:27.501Z,1012.379
2024-05-09T04:37:28.484Z,1012.388
2024-05-09T04:38:27.589Z,1012.429
2024-05-09T04:39:28.525Z,1012.416
2024-05-09T04:40:33.723Z,1012.394
2024-05-09T04:41:27.566Z,1012.419
2024-05-09T04:42:28.504Z,1012.418
2024-05-09T04:43:27.568Z,1012.38
2024-05-09T04:44:28.620Z,1012.388
2024-05-09T04:45:27.526Z,1012.401
2024-05-09T04:46:27.574Z,1012.396
2024-05-09T04:47:28.682Z,1012.398
2024-05-09T04:48:27.704Z,1012.424
2024-05-09T04:49:28.624Z,1012.422
2024-05-09T04:50:36.036Z,1012.391
2024-05-09T04:51:28.520Z,1012.371
2024-05-09T04:52:28.552Z,1012.415
2024-05-09T04:53:27.574Z,1012.398
2024-05-09T04:54:35.800Z,1012.381
2024-05-09T04:55:27.544Z,1012.399
2024-05-09T04:56:30.479Z,1012.39
2024-05-09T04:57:27.549Z,1012.391
2024-05-09T04:58:27.588Z,1012.445
2024-05-09T04:59:28.615Z,1012.377
2024-05-09T05:00:35.320Z,1012.41
2024-05-09T05:01:28.649Z,1012.417
2024-05-09T05:02:27.703Z,1012.412
2024-05-09T05:03:27.854Z,1012.414
2024-05-09T05:04:28.606Z,1012.413
2024-05-09T05:05:27.573Z,1012.394
2024-05-09T05:06:28.604Z,1012.392
2024-05-09T05:07:27.613Z,1012.427
2024-05-09T05:08:27.639Z,1012.386
2024-05-09T05:09:28.576Z,1012.362
2024-05-09T05:10:33.828Z,1012.356
2024-05-09T05:11:28.735Z,1012.391
2024-05-09T05:12:27.653Z,1012.411
2024-05-09T05:13:30.135Z,1012.368
2024-05-09T05:14:28.671Z,1012.421
2024-05-09T05:15:27.587Z,1012.383
2024-05-09T05:16:28.604Z,1012.403
2024-05-09T05:17:27.808Z,1012.419
2024-05-09T05:18:28.806Z,1012.443
2024-05-09T05:19:28.822Z,1012.448
2024-05-09T05:20:33.093Z,1012.446
2024-05-09T05:21:28.626Z,1012.466
2024-05-09T05:22:27.616Z,1012.437
2024-05-09T05:23:28.636Z,1012.428
2024-05-09T05:24:28.591Z,1012.438
2024-05-09T05:25:30.534Z,1012.417
2024-05-09T05:26:27.705Z,1012.429
2024-05-09T05:27:27.609Z,1012.44
2024-05-09T05:28:28.605Z,1012.457
2024-05-09T05:29:28.705Z,1012.451
2024-05-09T05:30:32.962Z,1012.45
2024-05-09T05:31:27.673Z,1012.452
2024-05-09T05:32:27.742Z,1012.496
2024-05-09T05:33:28.803Z,1012.502
2024-05-09T05:34:28.624Z,1012.487
2024-05-09T05:35:28.715Z,1012.492
2024-05-09T05:36:27.629Z,1012.47
2024-05-09T05:37:27.694Z,1012.499
2024-05-09T05:38:28.896Z,1012.471
2024-05-09T05:39:28.638Z,1012.467
2024-05-09T05:40:35.885Z,1012.469
2024-05-09T05:41:27.687Z,1012.458
2024-05-09T05:42:29.514Z,1012.47
2024-05-09T05:43:27.644Z,1012.455
2024-05-09T05:44:28.722Z,1012.445
2024-05-09T05:45:28.635Z,1012.473
2024-05-09T05:46:27.647Z,1012.463
2024-05-09T05:47:28.808Z,1012.463
2024-05-09T05:48:27.843Z,1012.443
2024-05-09T05:49:28.721Z,1012.465
2024-05-09T05:50:35.448Z,1012.468
2024-05-09T05:51:27.671Z,1012.446
2024-05-09T05:52:28.705Z,1012.461
2024-05-09T05:53:27.746Z,1012.479
2024-05-09T05:54:30.625Z,1012.461
2024-05-09T05:55:27.719Z,1012.497
2024-05-09T05:56:27.828Z,1012.515
2024-05-09T05:57:28.720Z,1012.481
2024-05-09T05:58:27.726Z,1012.492
2024-05-09T05:59:28.718Z,1012.489
2024-05-09T06:00:34.455Z,1012.512
2024-05-09T06:01:28.684Z,1012.516
2024-05-09T06:02:28.837Z,1012.529
2024-05-09T06:03:27.754Z,1012.525
2024-05-09T06:04:28.714Z,1012.551
2024-05-09T06:05:27.875Z,1012.532
2024-05-09T06:06:27.700Z,1012.523
2024-05-09T06:07:28.735Z,1012.567
2024-05-09T06:08:30.289Z,1012.536
2024-05-09T06:09:28.688Z,1012.541
2024-05-09T06:10:35.099Z,1012.525
2024-05-09T06:11:28.856Z,1012.557
2024-05-09T06:12:27.825Z,1012.537
2024-05-09T06:13:27.712Z,1012.518
2024-05-09T06:14:28.828Z,1012.535
2024-05-09T06:15:27.711Z,1012.545
2024-05-09T06:16:28.757Z,1012.528
2024-05-09T06:17:27.794Z,1012.52
2024-05-09T06:18:27.929Z,1012.497
2024-05-09T06:19:28.892Z,1012.523
2024-05-09T06:20:35.431Z,1012.537
2024-05-09T06:21:28.866Z,1012.559
2024-05-09T06:22:27.755Z,1012.548
2024-05-09T06:23:30.718Z,1012.535
2024-05-09T06:24:28.729Z,1012.53
2024-05-09T06:25:27.787Z,1012.493
2024-05-09T06:26:28.857Z,1012.526
2024-05-09T06:27:27.767Z,1012.481
2024-05-09T06:28:28.764Z,1012.486
2024-05-09T06:29:28.917Z,1012.474
2024-05-09T06:30:35.213Z,1012.48
2024-05-09T06:31:28.827Z,1012.478
2024-05-09T06:32:27.961Z,1012.454
2024-05-09T06:33:29.028Z,1012.497
2024-05-09T06:34:28.827Z,1012.491
2024-05-09T06:35:27.877Z,1012.473
2024-05-09T06:36:28.791Z,1012.453
2024-05-09T06:37:27.806Z,1012.47
2024-05-09T06:38:28.778Z,1012.475
2024-05-09T06:39:28.770Z,1012.458
2024-05-09T06:40:36.617Z,1012.452
2024-05-09T06:41:28.929Z,1012.454
2024-05-09T06:42:27.780Z,1012.467
2024-05-09T06:43:28.765Z,1012.439
2024-05-09T06:44:28.843Z,1012.471
2024-05-09T06:45:28.766Z,1012.464
2024-05-09T06:46:27.819Z,1012.475
2024-05-09T06:47:27.981Z,1012.479
2024-05-09T06:48:28.945Z,1012.493
2024-05-09T06:49:28.920Z,1012.541
2024-05-09T06:50:35.716Z,1012.489
2024-05-09T06:51:27.794Z,1012.506
2024-05-09T06:52:34.660Z,1012.498
2024-05-09T06:53:27.950Z,1012.48
2024-05-09T06:54:28.802Z,1012.497
2024-05-09T06:55:28.819Z,1012.498
2024-05-09T06:56:27.861Z,1012.511
2024-05-09T06:57:28.804Z,1012.549
2024-05-09T06:58:27.815Z,1012.557
2024-05-09T06:59:29.134Z,1012.547
2024-05-09T07:00:35.617Z,1012.546
2024-05-09T07:01:28.916Z,1012.54
2024-05-09T07:02:28.958Z,1012.586
2024-05-09T07:03:27.966Z,1012.571
2024-05-09T07:04:28.996Z,1012.579
2024-05-09T07:05:28.908Z,1012.59
2024-05-09T07:06:27.847Z,1012.604
2024-05-09T07:07:28.825Z,1012.589
2024-05-09T07:08:27.865Z,1012.625
2024-05-09T07:09:28.877Z,1012.648
2024-05-09T07:10:34.087Z,1012.651
2024-05-09T07:11:27.925Z,1012.635
2024-05-09T07:12:28.976Z,1012.662
2024-05-09T07:13:27.873Z,1012.619
2024-05-09T07:14:29.139Z,1012.654
2024-05-09T07:15:27.869Z,1012.617
2024-05-09T07:16:27.876Z,1012.621
2024-05-09T07:17:29.115Z,1012.576
2024-05-09T07:18:28.074Z,1012.57
2024-05-09T07:19:29.003Z,1012.594
2024-05-09T07:20:34.146Z,1012.626
2024-05-09T07:21:30.760Z,1012.586
2024-05-09T07:22:27.879Z,1012.593
2024-05-09T07:23:27.939Z,1012.585
2024-05-09T07:24:28.854Z,1012.617
2024-05-09T07:25:27.909Z,1012.585
2024-05-09T07:26:28.908Z,1012.605
2024-05-09T07:27:27.893Z,1012.607
2024-05-09T07:28:27.940Z,1012.587
2024-05-09T07:29:28.988Z,1012.559
2024-05-09T07:30:33.281Z,1012.555
2024-05-09T07:31:28.874Z,1012.523
2024-05-09T07:32:28.060Z,1012.505
2024-05-09T07:33:28.015Z,1012.482
2024-05-09T07:34:28.993Z,1012.532
2024-05-09T07:35:28.026Z,1012.545
2024-05-09T07:36:28.894Z,1012.502
2024-05-09T07:37:27.895Z,1012.521
2024-05-09T07:38:28.938Z,1012.516
2024-05-09T07:39:28.994Z,1012.52
2024-05-09T07:40:34.608Z,1012.516
2024-05-09T07:41:28.953Z,1012.528
2024-05-09T07:42:27.911Z,1012.507
2024-05-09T07:43:28.912Z,1012.525
2024-05-09T07:44:29.002Z,1012.501
2024-05-09T07:45:44.980Z,1012.527
2024-05-09T07:47:36.825Z,1012.54
2024-05-09T07:48:57.164Z,1012.554
2024-05-09T07:50:01.104Z,1012.529
2024-05-09T07:53:32.520Z,1012.552
2024-05-09T07:53:39.987Z,1012.533
2024-05-09T07:54:29.045Z,1012.515
2024-05-09T07:55:29.258Z,1012.513
2024-05-09T07:56:28.283Z,1012.518
2024-05-09T07:57:27.976Z,1012.513
2024-05-09T07:58:28.963Z,1012.522
2024-05-09T07:59:28.962Z,1012.521
2024-05-09T08:00:31.632Z,1012.501
2024-05-09T08:01:28.083Z,1012.458
2024-05-09T08:02:28.099Z,1012.482
2024-05-09T08:03:29.156Z,1012.482
2024-05-09T08:04:29.054Z,1012.501
2024-05-09T08:05:29.181Z,1012.502
2024-05-09T08:06:28.058Z,1012.522
2024-05-09T08:07:28.958Z,1012.49
2024-05-09T08:08:28.017Z,1012.517
2024-05-09T08:09:29.096Z,1012.529
2024-05-09T08:10:29.427Z,1012.495
2024-05-09T08:11:28.021Z,1012.479
2024-05-09T08:12:29.023Z,1012.489
2024-05-09T08:13:28.001Z,1012.437
2024-05-09T08:14:28.971Z,1012.422
2024-05-09T08:15:29.189Z,1012.411
2024-05-09T08:16:28.038Z,1012.427
2024-05-09T08:17:29.091Z,1012.388
2024-05-09T08:18:28.268Z,1012.377
2024-05-09T08:19:31.073Z,1012.391
2024-05-09T08:20:31.325Z,1012.379
2024-05-09T08:21:28.034Z,1012.422
2024-05-09T08:22:29.030Z,1012.392
2024-05-09T08:23:28.050Z,1012.428
2024-05-09T08:24:29.064Z,1012.366
2024-05-09T08:25:28.062Z,1012.431
2024-05-09T08:26:28.011Z,1012.409
2024-05-09T08:27:29.127Z,1012.388
2024-05-09T08:28:28.121Z,1012.36
2024-05-09T08:29:29.011Z,1012.391
2024-05-09T08:30:33.757Z,1012.376
2024-05-09T08:31:28.171Z,1012.346
2024-05-09T08:32:29.154Z,1012.394
2024-05-09T08:33:28.181Z,1012.395
2024-05-09T08:34:29.119Z,1012.403
2024-05-09T08:35:28.024Z,1012.405
2024-05-09T08:36:29.062Z,1012.369
2024-05-09T08:37:32.785Z,1012.4
2024-05-09T08:38:28.034Z,1012.391
2024-05-09T08:39:29.035Z,1012.386
2024-05-09T08:40:34.202Z,1012.368
2024-05-09T08:41:29.053Z,1012.36
2024-05-09T08:42:28.094Z,1012.366
2024-05-09T08:43:28.072Z,1012.365
2024-05-09T08:44:29.064Z,1012.317
2024-05-09T08:45:28.185Z,1012.342
2024-05-09T08:46:29.251Z,1012.331
2024-05-09T08:47:28.144Z,1012.322
2024-05-09T08:48:34.040Z,1012.319
2024-05-09T08:49:29.162Z,1012.328
2024-05-09T08:50:36.352Z,1012.298
2024-05-09T08:51:29.168Z,1012.323
2024-05-09T08:52:28.082Z,1012.326
2024-05-09T08:53:29.077Z,1012.298
2024-05-09T08:54:29.107Z,1012.337
2024-05-09T08:55:28.091Z,1012.255
2024-05-09T08:56:29.075Z,1012.251
2024-05-09T08:57:28.195Z,1012.247
2024-05-09T08:58:29.066Z,1012.284
2024-05-09T08:59:29.088Z,1012.249
2024-05-09T09:00:35.820Z,1012.289
2024-05-09T09:01:29.138Z,1012.255
2024-05-09T09:02:28.329Z,1012.31
2024-05-09T09:03:29.309Z,1012.314
2024-05-09T09:04:29.165Z,1012.295
2024-05-09T09:05:30.684Z,1012.269
2024-05-09T09:06:28.140Z,1012.269
2024-05-09T09:07:28.267Z,1012.254
2024-05-09T09:08:29.117Z,1012.282
2024-05-09T09:09:29.149Z,1012.227
2024-05-09T09:10:32.150Z,1012.271
2024-05-09T09:11:28.153Z,1012.254
2024-05-09T09:12:28.147Z,1012.291
2024-05-09T09:13:29.126Z,1012.281
2024-05-09T09:14:29.099Z,1012.262
2024-05-09T09:15:29.137Z,1012.277
2024-05-09T09:16:28.167Z,1012.305
2024-05-09T09:17:35.639Z,1012.287
2024-05-09T09:18:28.589Z,1012.24
2024-05-09T09:19:29.186Z,1012.291
2024-05-09T09:20:35.722Z,1012.267
2024-05-09T09:21:28.158Z,1012.291
2024-05-09T09:22:29.156Z,1012.273
2024-05-09T09:23:28.144Z,1012.276
2024-05-09T09:24:29.187Z,1012.275
2024-05-09T09:25:29.170Z,1012.265
2024-05-09T09:26:28.154Z,1012.225
2024-05-09T09:27:29.146Z,1012.268
2024-05-09T09:28:28.178Z,1012.247
2024-05-09T09:29:29.154Z,1012.232
2024-05-09T09:30:36.053Z,1012.242
2024-05-09T09:31:28.261Z,1012.227
2024-05-09T09:32:29.302Z,1012.257
2024-05-09T09:33:28.297Z,1012.235
2024-05-09T09:34:29.364Z,1012.247
2024-05-09T09:35:28.173Z,1012.279
2024-05-09T09:36:28.271Z,1012.214
2024-05-09T09:37:29.220Z,1012.234
2024-05-09T09:38:28.226Z,1012.236
2024-05-09T09:39:29.232Z,1012.199
2024-05-09T09:40:32.172Z,1012.204
2024-05-09T09:41:28.182Z,1012.191
2024-05-09T09:42:29.250Z,1012.199
2024-05-09T09:43:28.187Z,1012.207
2024-05-09T09:44:29.179Z,1012.18
2024-05-09T09:45:28.249Z,1012.193
2024-05-09T09:46:32.220Z,1012.218
2024-05-09T09:47:28.269Z,1012.2
2024-05-09T09:48:28.339Z,1012.159
2024-05-09T09:49:29.317Z,1012.181
2024-05-09T09:50:34.115Z,1012.205
2024-05-09T09:51:29.210Z,1012.221
2024-05-09T09:52:28.292Z,1012.187
2024-05-09T09:53:28.213Z,1012.216
2024-05-09T09:54:29.243Z,1012.212
2024-05-09T09:55:28.235Z,1012.216
2024-05-09T09:56:29.239Z,1012.19
2024-05-09T09:57:28.285Z,1012.164
2024-05-09T09:58:28.396Z,1012.162
2024-05-09T09:59:29.213Z,1012.158
2024-05-09T10:00:32.873Z,1012.121
2024-05-09T10:01:29.328Z,1012.097
2024-05-09T10:02:28.369Z,1012.08
2024-05-09T10:03:29.403Z,1012.088
2024-05-09T10:04:29.358Z,1012.098
2024-05-09T10:05:28.443Z,1012.084
2024-05-09T10:06:29.266Z,1012.078
2024-05-09T10:07:28.272Z,1012.085
2024-05-09T10:08:29.227Z,1012.087
2024-05-09T10:09:29.279Z,1012.067
2024-05-09T10:10:32.430Z,1012.032
2024-05-09T10:11:29.384Z,1012.013
2024-05-09T10:12:28.306Z,1012.018
2024-05-09T10:13:29.292Z,1011.984
2024-05-09T10:14:29.265Z,1011.965
2024-05-09T10:15:50.939Z,1011.962
2024-05-09T10:16:28.308Z,1011.955
2024-05-09T10:17:28.375Z,1011.982
2024-05-09T10:18:31.252Z,1011.967
2024-05-09T10:19:29.405Z,1011.928
2024-05-09T10:21:29.319Z,1011.97
2024-05-09T10:22:28.331Z,1011.953
2024-05-09T10:23:29.405Z,1011.927
2024-05-09T10:24:29.351Z,1011.931
2024-05-09T10:25:29.302Z,1011.918
2024-05-09T10:26:28.289Z,1011.874
2024-05-09T10:27:28.356Z,1011.9
2024-05-09T10:28:29.328Z,1011.853
2024-05-09T10:29:29.288Z,1011.855
2024-05-09T10:30:34.353Z,1011.839
2024-05-09T10:31:28.349Z,1011.843
2024-05-09T10:32:29.387Z,1011.844
2024-05-09T10:33:28.425Z,1011.812
2024-05-09T10:34:29.378Z,1011.832
2024-05-09T10:35:29.296Z,1011.834
2024-05-09T10:36:28.469Z,1011.837
2024-05-09T10:37:29.448Z,1011.817
2024-05-09T10:38:28.328Z,1011.791
2024-05-09T10:39:29.342Z,1011.814
2024-05-09T10:40:31.611Z,1011.788
2024-05-09T10:41:28.320Z,1011.733
2024-05-09T10:42:29.349Z,1011.777
2024-05-09T10:43:28.346Z,1011.779
2024-05-09T10:44:37.382Z,1011.774
2024-05-09T10:45:28.356Z,1011.76
2024-05-09T10:46:28.371Z,1011.753
2024-05-09T10:47:29.431Z,1011.757
2024-05-09T10:48:28.504Z,1011.727
2024-05-09T10:49:29.381Z,1011.725
2024-05-09T10:50:31.970Z,1011.698
2024-05-09T10:51:28.385Z,1011.673
2024-05-09T10:52:29.339Z,1011.666
2024-05-09T10:53:28.349Z,1011.669
2024-05-09T10:54:29.374Z,1011.682
2024-05-09T10:55:28.395Z,1011.709
2024-05-09T10:56:28.367Z,1011.688
2024-05-09T10:57:29.387Z,1011.666
2024-05-09T10:58:28.418Z,1011.646
2024-05-09T10:59:29.352Z,1011.655
2024-05-09T11:00:33.681Z,1011.667
2024-05-09T11:01:29.435Z,1011.653
2024-05-09T11:02:28.585Z,1011.657
2024-05-09T11:03:28.482Z,1011.656
2024-05-09T11:04:29.403Z,1011.614
2024-05-09T11:05:28.580Z,1011.623
2024-05-09T11:06:29.368Z,1011.609
2024-05-09T11:07:28.402Z,1011.606
2024-05-09T11:08:28.391Z,1011.568
2024-05-09T11:09:29.410Z,1011.598
2024-05-09T11:10:33.733Z,1011.562
2024-05-09T11:11:29.458Z,1011.582
2024-05-09T11:12:28.416Z,1011.566
2024-05-09T11:13:33.423Z,1011.582
2024-05-09T11:14:29.384Z,1011.555
2024-05-09T11:15:28.421Z,1011.566
2024-05-09T11:16:29.428Z,1011.558
2024-05-09T11:17:28.681Z,1011.513
2024-05-09T11:18:31.890Z,1011.537
2024-05-09T11:19:29.470Z,1011.497
2024-05-09T11:20:30.143Z,1011.503
2024-05-09T11:21:29.461Z,1011.441
2024-05-09T11:22:28.473Z,1011.423
2024-05-09T11:23:29.412Z,1011.409
2024-05-09T11:24:29.454Z,1011.404
2024-05-09T11:25:28.423Z,1011.392
2024-05-09T11:26:29.532Z,1011.411
2024-05-09T11:27:28.509Z,1011.409
2024-05-09T11:28:29.420Z,1011.365
2024-05-09T11:29:29.425Z,1011.431
2024-05-09T11:30:32.135Z,1011.384
2024-05-09T11:31:28.554Z,1011.393
2024-05-09T11:32:28.685Z,1011.349
2024-05-09T11:33:29.628Z,1011.373
2024-05-09T11:34:29.496Z,1011.345
2024-05-09T11:35:29.488Z,1011.313
2024-05-09T11:36:28.495Z,1011.309
2024-05-09T11:37:28.511Z,1011.285
2024-05-09T11:38:29.473Z,1011.279
2024-05-09T11:39:29.480Z,1011.216
2024-05-09T11:40:34.197Z,1011.221
2024-05-09T11:41:28.485Z,1011.211
2024-05-09T11:42:31.514Z,1011.147
2024-05-09T11:43:28.582Z,1011.121
2024-05-09T11:44:29.448Z,1011.16
2024-05-09T11:45:29.492Z,1011.147
2024-05-09T11:46:28.499Z,1011.129
2024-05-09T11:47:29.564Z,1011.191
2024-05-09T11:48:28.653Z,1011.155
2024-05-09T11:49:29.602Z,1011.143
2024-05-09T11:50:33.188Z,1011.11